sensor_id;sensor_type;location;lat;lon;timestamp;pressure;altitude;pressure_sealevel;temperature;humidity
36692;BME280;22678;52.052;4.242;2022-08-21T00:01:48;101679.22;;;19.96;64.36
36692;BME280;22678;52.052;4.242;2022-08-21T00:04:14;101710.63;;;20.15;64.21
36692;BME280;22678;52.052;4.242;2022-08-21T00:06:39;101700.94;;;20.12;64.62
36692;BME280;22678;52.052;4.242;2022-08-21T00:09:07;101709.09;;;20.07;64.50
36692;BME280;22678;52.052;4.242;2022-08-21T00:11:34;101701.41;;;19.98;64.61
36692;BME280;22678;52.052;4.242;2022-08-21T00:14:00;101703.97;;;20.01;64.70
36692;BME280;22678;52.052;4.242;2022-08-21T00:16:25;101683.13;;;19.86;64.87
36692;BME280;22678;52.052;4.242;2022-08-21T00:18:51;101647.50;;;19.60;64.90
36692;BME280;22678;52.052;4.242;2022-08-21T00:21:16;101665.75;;;19.72;64.93
36692;BME280;22678;52.052;4.242;2022-08-21T00:23:41;101665.97;;;19.66;64.92
36692;BME280;22678;52.052;4.242;2022-08-21T00:26:07;101685.09;;;19.81;65.34
36692;BME280;22678;52.052;4.242;2022-08-21T00:28:33;101696.63;;;19.81;65.36
36692;BME280;22678;52.052;4.242;2022-08-21T00:30:58;101696.63;;;19.81;65.58
36692;BME280;22678;52.052;4.242;2022-08-21T00:33:25;101683.63;;;19.70;65.72
36692;BME280;22678;52.052;4.242;2022-08-21T00:35:50;101698.56;;;19.76;65.59
36692;BME280;22678;52.052;4.242;2022-08-21T00:38:16;101703.91;;;19.76;65.87
36692;BME280;22678;52.052;4.242;2022-08-21T00:40:48;101691.53;;;19.73;65.87
36692;BME280;22678;52.052;4.242;2022-08-21T00:43:17;101696.06;;;19.71;66.04
36692;BME280;22678;52.052;4.242;2022-08-21T00:45:43;101685.66;;;19.62;66.12
36692;BME280;22678;52.052;4.242;2022-08-21T00:48:10;101698.09;;;19.63;66.43
36692;BME280;22678;52.052;4.242;2022-08-21T00:50:40;101689.22;;;19.63;66.38
36692;BME280;22678;52.052;4.242;2022-08-21T00:53:07;101696.44;;;19.59;66.38
36692;BME280;22678;52.052;4.242;2022-08-21T00:55:34;101682.59;;;19.46;66.53
36692;BME280;22678;52.052;4.242;2022-08-21T00:58:04;101693.06;;;19.54;66.68
36692;BME280;22678;52.052;4.242;2022-08-21T01:00:35;101680.84;;;19.47;66.88
36692;BME280;22678;52.052;4.242;2022-08-21T01:03:06;101643.22;;;19.28;67.00
36692;BME280;22678;52.052;4.242;2022-08-21T01:05:32;101680.94;;;19.43;66.88
36692;BME280;22678;52.052;4.242;2022-08-21T01:07:57;101674.84;;;19.38;67.21
36692;BME280;22678;52.052;4.242;2022-08-21T01:10:23;101676.63;;;19.39;67.23
36692;BME280;22678;52.052;4.242;2022-08-21T01:12:53;101661.03;;;19.25;67.38
36692;BME280;22678;52.052;4.242;2022-08-21T01:15:22;101675.81;;;19.36;67.34
36692;BME280;22678;52.052;4.242;2022-08-21T01:17:49;101671.47;;;19.33;67.55
36692;BME280;22678;52.052;4.242;2022-08-21T01:20:14;101664.69;;;19.23;67.64
36692;BME280;22678;52.052;4.242;2022-08-21T01:22:40;101651.72;;;19.11;67.84
36692;BME280;22678;52.052;4.242;2022-08-21T01:25:07;101669.19;;;19.21;67.85
36692;BME280;22678;52.052;4.242;2022-08-21T01:27:33;101662.28;;;19.14;67.92
36692;BME280;22678;52.052;4.242;2022-08-21T01:30:12;101679.03;;;19.19;68.21
36692;BME280;22678;52.052;4.242;2022-08-21T01:32:38;101631.81;;;18.94;68.20
36692;BME280;22678;52.052;4.242;2022-08-21T01:35:05;101675.63;;;19.14;68.33
36692;BME280;22678;52.052;4.242;2022-08-21T01:37:31;101657.50;;;18.97;68.41
36692;BME280;22678;52.052;4.242;2022-08-21T01:39:56;101659.09;;;19.02;68.67
36692;BME280;22678;52.052;4.242;2022-08-21T01:42:22;101661.03;;;18.97;68.71
36692;BME280;22678;52.052;4.242;2022-08-21T01:44:48;101656.66;;;18.95;68.84
36692;BME280;22678;52.052;4.242;2022-08-21T01:47:14;101664.44;;;19.02;68.96
36692;BME280;22678;52.052;4.242;2022-08-21T01:49:41;101655.94;;;18.89;69.06
36692;BME280;22678;52.052;4.242;2022-08-21T01:52:07;101673.50;;;18.97;68.99
36692;BME280;22678;52.052;4.242;2022-08-21T01:54:32;101661.22;;;18.91;69.09
36692;BME280;22678;52.052;4.242;2022-08-21T01:56:59;101664.94;;;18.84;69.43
36692;BME280;22678;52.052;4.242;2022-08-21T01:59:25;101656.91;;;18.85;69.16
36692;BME280;22678;52.052;4.242;2022-08-21T02:01:51;101663.13;;;18.86;69.61
36692;BME280;22678;52.052;4.242;2022-08-21T02:04:19;101643.09;;;18.71;69.72
36692;BME280;22678;52.052;4.242;2022-08-21T02:06:44;101600.34;;;18.46;69.89
36692;BME280;22678;52.052;4.242;2022-08-21T02:09:11;101621.31;;;18.58;69.91
36692;BME280;22678;52.052;4.242;2022-08-21T02:11:37;101632.78;;;18.60;69.88
36692;BME280;22678;52.052;4.242;2022-08-21T02:14:06;101648.53;;;18.68;69.89
36692;BME280;22678;52.052;4.242;2022-08-21T02:16:31;101646.66;;;18.71;70.09
36692;BME280;22678;52.052;4.242;2022-08-21T02:18:57;101647.75;;;18.64;70.10
36692;BME280;22678;52.052;4.242;2022-08-21T02:21:22;101640.78;;;18.60;70.28
36692;BME280;22678;52.052;4.242;2022-08-21T02:23:47;101652.38;;;18.58;70.48
36692;BME280;22678;52.052;4.242;2022-08-21T02:26:13;101653.19;;;18.61;70.11
36692;BME280;22678;52.052;4.242;2022-08-21T02:28:39;101647.94;;;18.58;70.38
36692;BME280;22678;52.052;4.242;2022-08-21T02:31:05;101646.31;;;18.52;70.57
36692;BME280;22678;52.052;4.242;2022-08-21T02:33:31;101649.91;;;18.51;70.66
36692;BME280;22678;52.052;4.242;2022-08-21T02:35:57;101649.94;;;18.50;70.66
36692;BME280;22678;52.052;4.242;2022-08-21T02:38:26;101643.03;;;18.43;70.75
36692;BME280;22678;52.052;4.242;2022-08-21T02:40:56;101651.88;;;18.45;70.80
36692;BME280;22678;52.052;4.242;2022-08-21T02:43:23;101645.69;;;18.43;70.82
36692;BME280;22678;52.052;4.242;2022-08-21T02:45:49;101648.47;;;18.39;71.03
36692;BME280;22678;52.052;4.242;2022-08-21T02:48:19;101642.41;;;18.33;71.06
36692;BME280;22678;52.052;4.242;2022-08-21T02:50:55;101633.66;;;18.29;71.13
36692;BME280;22678;52.052;4.242;2022-08-21T02:53:21;101634.66;;;18.25;71.21
36692;BME280;22678;52.052;4.242;2022-08-21T02:55:49;101632.84;;;18.27;71.31
36692;BME280;22678;52.052;4.242;2022-08-21T02:58:16;101633.91;;;18.20;71.39
36692;BME280;22678;52.052;4.242;2022-08-21T03:00:43;101641.81;;;18.23;71.38
36692;BME280;22678;52.052;4.242;2022-08-21T03:03:09;101636.59;;;18.20;71.56
36692;BME280;22678;52.052;4.242;2022-08-21T03:05:36;101634.91;;;18.16;71.58
36692;BME280;22678;52.052;4.242;2022-08-21T03:08:05;101635.84;;;18.13;71.68
36692;BME280;22678;52.052;4.242;2022-08-21T03:10:35;101635.09;;;18.10;71.86
36692;BME280;22678;52.052;4.242;2022-08-21T03:13:00;101636.03;;;18.07;71.96
36692;BME280;22678;52.052;4.242;2022-08-21T03:15:26;101624.63;;;18.03;72.02
36692;BME280;22678;52.052;4.242;2022-08-21T03:17:52;101627.28;;;18.03;72.19
36692;BME280;22678;52.052;4.242;2022-08-21T03:20:21;101620.16;;;18.04;72.24
36692;BME280;22678;52.052;4.242;2022-08-21T03:22:49;101626.47;;;18.00;72.52
36692;BME280;22678;52.052;4.242;2022-08-21T03:25:15;101626.41;;;18.01;72.45
36692;BME280;22678;52.052;4.242;2022-08-21T03:27:40;101604.50;;;17.92;72.44
36692;BME280;22678;52.052;4.242;2022-08-21T03:30:07;101612.47;;;17.93;72.69
36692;BME280;22678;52.052;4.242;2022-08-21T03:32:33;101610.72;;;17.92;72.66
36692;BME280;22678;52.052;4.242;2022-08-21T03:34:59;101612.47;;;17.93;72.80
36692;BME280;22678;52.052;4.242;2022-08-21T03:37:25;101608.94;;;17.91;72.58
36692;BME280;22678;52.052;4.242;2022-08-21T03:39:51;101604.66;;;17.84;73.01
36692;BME280;22678;52.052;4.242;2022-08-21T03:42:16;101604.75;;;17.81;73.26
36692;BME280;22678;52.052;4.242;2022-08-21T03:44:42;101598.63;;;17.79;73.26
36692;BME280;22678;52.052;4.242;2022-08-21T03:47:07;101604.88;;;17.76;73.53
36692;BME280;22678;52.052;4.242;2022-08-21T03:49:33;101604.06;;;17.74;73.62
36692;BME280;22678;52.052;4.242;2022-08-21T03:51:59;101604.97;;;17.73;73.91
36692;BME280;22678;52.052;4.242;2022-08-21T03:54:24;101602.44;;;17.68;73.80
36692;BME280;22678;52.052;4.242;2022-08-21T03:56:50;101606.00;;;17.67;73.99
36692;BME280;22678;52.052;4.242;2022-08-21T03:59:16;101610.28;;;17.73;73.90
36692;BME280;22678;52.052;4.242;2022-08-21T04:01:55;101600.66;;;17.67;74.28
36692;BME280;22678;52.052;4.242;2022-08-21T04:04:20;101606.00;;;17.67;74.48
36692;BME280;22678;52.052;4.242;2022-08-21T04:06:45;101599.06;;;17.60;74.67
36692;BME280;22678;52.052;4.242;2022-08-21T04:09:11;101606.06;;;17.64;74.60
36692;BME280;22678;52.052;4.242;2022-08-21T04:11:36;101602.59;;;17.62;74.79
36692;BME280;22678;52.052;4.242;2022-08-21T04:14:02;101605.34;;;17.58;75.18
36692;BME280;22678;52.052;4.242;2022-08-21T04:16:27;101600.13;;;17.53;75.10
36692;BME280;22678;52.052;4.242;2022-08-21T04:18:52;101610.69;;;17.56;75.25
36692;BME280;22678;52.052;4.242;2022-08-21T04:21:18;101615.13;;;17.57;75.50
36692;BME280;22678;52.052;4.242;2022-08-21T04:23:43;101609.97;;;17.51;75.62
36692;BME280;22678;52.052;4.242;2022-08-21T04:26:08;101619.63;;;17.55;75.53
36692;BME280;22678;52.052;4.242;2022-08-21T04:28:34;101618.84;;;17.50;75.82
36692;BME280;22678;52.052;4.242;2022-08-21T04:30:59;101629.47;;;17.50;75.77
36692;BME280;22678;52.052;4.242;2022-08-21T04:33:24;101626.94;;;17.45;76.01
36692;BME280;22678;52.052;4.242;2022-08-21T04:35:50;101642.03;;;17.45;75.97
36692;BME280;22678;52.052;4.242;2022-08-21T04:38:16;101640.19;;;17.47;76.30
36692;BME280;22678;52.052;4.242;2022-08-21T04:40:42;101642.88;;;17.45;76.50
36692;BME280;22678;52.052;4.242;2022-08-21T04:43:09;101646.44;;;17.44;76.49
36692;BME280;22678;52.052;4.242;2022-08-21T04:45:37;101643.81;;;17.43;76.66
36692;BME280;22678;52.052;4.242;2022-08-21T04:48:06;101644.78;;;17.40;76.68
36692;BME280;22678;52.052;4.242;2022-08-21T04:50:39;101649.22;;;17.40;77.06
36692;BME280;22678;52.052;4.242;2022-08-21T04:53:10;101658.09;;;17.40;76.95
36692;BME280;22678;52.052;4.242;2022-08-21T04:55:37;101660.75;;;17.40;77.30
36692;BME280;22678;52.052;4.242;2022-08-21T04:58:07;101643.22;;;17.31;77.51
36692;BME280;22678;52.052;4.242;2022-08-21T05:00:34;101635.28;;;17.28;77.45
36692;BME280;22678;52.052;4.242;2022-08-21T05:03:00;101662.47;;;17.41;77.70
36692;BME280;22678;52.052;4.242;2022-08-21T05:05:28;101655.41;;;17.42;77.78
36692;BME280;22678;52.052;4.242;2022-08-21T05:07:55;101649.28;;;17.37;77.78
36692;BME280;22678;52.052;4.242;2022-08-21T05:10:21;101651.00;;;17.39;77.84
36692;BME280;22678;52.052;4.242;2022-08-21T05:12:47;101635.28;;;17.28;78.08
36692;BME280;22678;52.052;4.242;2022-08-21T05:15:13;101652.69;;;17.43;78.20
36692;BME280;22678;52.052;4.242;2022-08-21T05:17:40;101658.84;;;17.45;78.26
36692;BME280;22678;52.052;4.242;2022-08-21T05:20:07;101639.47;;;17.39;78.79
36692;BME280;22678;52.052;4.242;2022-08-21T05:22:32;101643.75;;;17.46;78.61
36692;BME280;22678;52.052;4.242;2022-08-21T05:24:57;101630.72;;;17.35;78.72
36692;BME280;22678;52.052;4.242;2022-08-21T05:27:23;101638.59;;;17.40;78.90
36692;BME280;22678;52.052;4.242;2022-08-21T05:29:48;101643.75;;;17.46;79.22
36692;BME280;22678;52.052;4.242;2022-08-21T05:32:14;101649.00;;;17.49;79.24
36692;BME280;22678;52.052;4.242;2022-08-21T05:34:39;101646.31;;;17.50;79.25
36692;BME280;22678;52.052;4.242;2022-08-21T05:37:05;101643.63;;;17.52;79.29
36692;BME280;22678;52.052;4.242;2022-08-21T05:39:31;101642.72;;;17.51;79.48
36692;BME280;22678;52.052;4.242;2022-08-21T05:41:56;101634.88;;;17.47;79.68
36692;BME280;22678;52.052;4.242;2022-08-21T05:44:21;101632.16;;;17.48;79.71
36692;BME280;22678;52.052;4.242;2022-08-21T05:46:47;101633.03;;;17.49;79.87
36692;BME280;22678;52.052;4.242;2022-08-21T05:49:12;101647.22;;;17.49;80.05
36692;BME280;22678;52.052;4.242;2022-08-21T05:51:39;101636.47;;;17.54;80.12
36692;BME280;22678;52.052;4.242;2022-08-21T05:54:05;101639.91;;;17.58;79.92
36692;BME280;22678;52.052;4.242;2022-08-21T05:56:31;101640.72;;;17.61;80.30
36692;BME280;22678;52.052;4.242;2022-08-21T05:58:56;101636.09;;;17.68;80.45
36692;BME280;22678;52.052;4.242;2022-08-21T06:01:21;101642.09;;;17.78;80.36
36692;BME280;22678;52.052;4.242;2022-08-21T06:03:47;101648.91;;;17.90;80.39
36692;BME280;22678;52.052;4.242;2022-08-21T06:06:12;101642.31;;;18.04;80.15
36692;BME280;22678;52.052;4.242;2022-08-21T06:08:37;101646.34;;;18.19;79.59
36692;BME280;22678;52.052;4.242;2022-08-21T06:11:04;101650.41;;;18.34;79.71
36692;BME280;22678;52.052;4.242;2022-08-21T06:13:31;101625.50;;;18.35;79.58
36692;BME280;22678;52.052;4.242;2022-08-21T06:16:10;101660.31;;;18.59;79.29
36692;BME280;22678;52.052;4.242;2022-08-21T06:18:37;101655.47;;;18.73;78.88
36692;BME280;22678;52.052;4.242;2022-08-21T06:21:03;101653.44;;;18.83;78.56
36692;BME280;22678;52.052;4.242;2022-08-21T06:23:29;101653.88;;;18.99;78.43
36692;BME280;22678;52.052;4.242;2022-08-21T06:25:55;101656.97;;;19.14;78.02
36692;BME280;22678;52.052;4.242;2022-08-21T06:28:20;101639.03;;;19.19;77.55
36692;BME280;22678;52.052;4.242;2022-08-21T06:30:45;101652.59;;;19.39;77.30
36692;BME280;22678;52.052;4.242;2022-08-21T06:33:11;101651.22;;;19.54;76.80
36692;BME280;22678;52.052;4.242;2022-08-21T06:35:36;101649.84;;;19.69;76.47
36692;BME280;22678;52.052;4.242;2022-08-21T06:38:02;101636.25;;;19.77;75.90
36692;BME280;22678;52.052;4.242;2022-08-21T06:40:28;101642.06;;;19.90;75.52
36692;BME280;22678;52.052;4.242;2022-08-21T06:42:54;101624.81;;;19.73;75.50
36692;BME280;22678;52.052;4.242;2022-08-21T06:45:20;101647.72;;;19.81;75.50
36692;BME280;22678;52.052;4.242;2022-08-21T06:47:45;101638.25;;;19.70;75.48
36692;BME280;22678;52.052;4.242;2022-08-21T06:50:10;101662.06;;;19.76;75.60
36692;BME280;22678;52.052;4.242;2022-08-21T06:52:37;101664.09;;;19.68;75.74
36692;BME280;22678;52.052;4.242;2022-08-21T06:55:05;101659.94;;;19.61;75.88
36692;BME280;22678;52.052;4.242;2022-08-21T06:57:31;101643.50;;;19.47;75.94
36692;BME280;22678;52.052;4.242;2022-08-21T06:59:56;101655.41;;;19.63;76.29
36692;BME280;22678;52.052;4.242;2022-08-21T07:02:21;101633.56;;;19.78;76.26
36692;BME280;22678;52.052;4.242;2022-08-21T07:04:46;101643.81;;;19.91;75.97
36692;BME280;22678;52.052;4.242;2022-08-21T07:07:12;101639.19;;;19.96;76.09
36692;BME280;22678;52.052;4.242;2022-08-21T07:09:37;101654.22;;;20.24;75.81
36692;BME280;22678;52.052;4.242;2022-08-21T07:12:03;101649.91;;;20.45;75.10
36692;BME280;22678;52.052;4.242;2022-08-21T07:14:28;101641.38;;;20.59;74.34
36692;BME280;22678;52.052;4.242;2022-08-21T07:16:53;101641.84;;;20.72;74.37
36692;BME280;22678;52.052;4.242;2022-08-21T07:19:19;101648.09;;;20.94;73.87
36692;BME280;22678;52.052;4.242;2022-08-21T07:21:45;101656.59;;;21.28;73.67
36692;BME280;22678;52.052;4.242;2022-08-21T07:24:10;101635.81;;;21.57;72.79
36692;BME280;22678;52.052;4.242;2022-08-21T07:26:36;101654.06;;;21.90;71.82
36692;BME280;22678;52.052;4.242;2022-08-21T07:29:02;101644.75;;;21.98;70.88
36692;BME280;22678;52.052;4.242;2022-08-21T07:31:28;101638.50;;;21.77;70.05
36692;BME280;22678;52.052;4.242;2022-08-21T07:33:55;101647.72;;;21.70;70.41
36692;BME280;22678;52.052;4.242;2022-08-21T07:36:20;101639.63;;;21.49;70.59
36692;BME280;22678;52.052;4.242;2022-08-21T07:38:46;101636.56;;;21.38;70.88
36692;BME280;22678;52.052;4.242;2022-08-21T07:41:24;101645.56;;;21.35;71.10
36692;BME280;22678;52.052;4.242;2022-08-21T07:43:49;101654.59;;;21.55;71.39
36692;BME280;22678;52.052;4.242;2022-08-21T07:46:15;101641.97;;;21.59;71.13
36692;BME280;22678;52.052;4.242;2022-08-21T07:48:41;101664.31;;;21.58;70.88
36692;BME280;22678;52.052;4.242;2022-08-21T07:51:10;101648.81;;;21.44;70.53
36692;BME280;22678;52.052;4.242;2022-08-21T07:53:36;101652.59;;;21.38;70.29
36692;BME280;22678;52.052;4.242;2022-08-21T07:56:03;101640.78;;;21.22;70.53
36692;BME280;22678;52.052;4.242;2022-08-21T07:58:29;101656.19;;;21.15;70.88
36692;BME280;22678;52.052;4.242;2022-08-21T08:00:55;101648.72;;;21.01;71.47
36692;BME280;22678;52.052;4.242;2022-08-21T08:03:20;101657.78;;;20.97;71.58
36692;BME280;22678;52.052;4.242;2022-08-21T08:05:46;101653.63;;;20.90;71.54
36692;BME280;22678;52.052;4.242;2022-08-21T08:08:11;101652.03;;;20.84;71.11
36692;BME280;22678;52.052;4.242;2022-08-21T08:10:38;101648.75;;;20.77;70.50
36692;BME280;22678;52.052;4.242;2022-08-21T08:13:03;101659.38;;;20.79;69.63
36692;BME280;22678;52.052;4.242;2022-08-21T08:15:29;101655.13;;;20.73;69.16
36692;BME280;22678;52.052;4.242;2022-08-21T08:17:55;101648.84;;;20.74;69.00
36692;BME280;22678;52.052;4.242;2022-08-21T08:20:21;101664.97;;;20.95;68.76
36692;BME280;22678;52.052;4.242;2022-08-21T08:22:48;101645.44;;;21.16;67.87
36692;BME280;22678;52.052;4.242;2022-08-21T08:25:14;101662.91;;;21.47;67.16
36692;BME280;22678;52.052;4.242;2022-08-21T08:27:40;101659.94;;;21.77;66.28
36692;BME280;22678;52.052;4.242;2022-08-21T08:30:08;101655.41;;;22.00;64.87
36692;BME280;22678;52.052;4.242;2022-08-21T08:32:35;101651.97;;;22.17;63.97
36692;BME280;22678;52.052;4.242;2022-08-21T08:35:01;101647.75;;;22.11;63.04
36692;BME280;22678;52.052;4.242;2022-08-21T08:37:27;101644.91;;;22.16;62.21
36692;BME280;22678;52.052;4.242;2022-08-21T08:39:52;101653.13;;;22.32;62.13
36692;BME280;22678;52.052;4.242;2022-08-21T08:44:57;101666.31;;;22.57;60.87
36692;BME280;22678;52.052;4.242;2022-08-21T08:47:24;101660.03;;;22.77;60.65
36692;BME280;22678;52.052;4.242;2022-08-21T08:50:06;101663.16;;;23.06;59.92
36692;BME280;22678;52.052;4.242;2022-08-21T08:52:43;101663.88;;;23.29;58.96
36692;BME280;22678;52.052;4.242;2022-08-21T08:55:15;101653.19;;;23.46;58.13
36692;BME280;22678;52.052;4.242;2022-08-21T08:57:45;101651.16;;;23.69;57.26
36692;BME280;22678;52.052;4.242;2022-08-21T09:00:13;101661.84;;;23.88;56.94
36692;BME280;22678;52.052;4.242;2022-08-21T09:02:40;101660.69;;;23.93;56.00
36692;BME280;22678;52.052;4.242;2022-08-21T09:05:07;101647.00;;;23.98;55.98
36692;BME280;22678;52.052;4.242;2022-08-21T09:10:34;101652.13;;;24.20;55.15
36692;BME280;22678;52.052;4.242;2022-08-21T09:13:15;101658.75;;;24.30;54.70
36692;BME280;22678;52.052;4.242;2022-08-21T09:18:47;101664.38;;;24.26;53.38
36692;BME280;22678;52.052;4.242;2022-08-21T09:21:47;101664.13;;;24.30;52.91
36692;BME280;22678;52.052;4.242;2022-08-21T09:24:36;101664.13;;;24.30;53.45
36692;BME280;22678;52.052;4.242;2022-08-21T09:27:16;101669.50;;;24.30;54.09
36692;BME280;22678;52.052;4.242;2022-08-21T09:29:45;101661.75;;;24.24;54.37
36692;BME280;22678;52.052;4.242;2022-08-21T09:32:30;101665.69;;;24.35;53.74
36692;BME280;22678;52.052;4.242;2022-08-21T09:37:21;101655.91;;;24.67;53.18
36692;BME280;22678;52.052;4.242;2022-08-21T09:39:46;101659.09;;;24.91;52.52
36692;BME280;22678;52.052;4.242;2022-08-21T09:42:22;101663.06;;;25.16;51.36
36692;BME280;22678;52.052;4.242;2022-08-21T09:44:48;101667.06;;;25.09;51.73
36692;BME280;22678;52.052;4.242;2022-08-21T09:47:13;101664.09;;;24.81;51.48
36692;BME280;22678;52.052;4.242;2022-08-21T09:49:43;101674.50;;;24.54;51.83
36692;BME280;22678;52.052;4.242;2022-08-21T09:52:20;101665.88;;;24.14;52.67
36692;BME280;22678;52.052;4.242;2022-08-21T09:54:51;101657.22;;;23.91;53.62
36692;BME280;22678;52.052;4.242;2022-08-21T09:57:26;101667.44;;;23.83;54.48
36692;BME280;22678;52.052;4.242;2022-08-21T10:02:46;101663.78;;;23.67;54.44
36692;BME280;22678;52.052;4.242;2022-08-21T10:05:21;101666.56;;;23.65;54.84
36692;BME280;22678;52.052;4.242;2022-08-21T10:07:48;101675.22;;;23.70;53.94
36692;BME280;22678;52.052;4.242;2022-08-21T10:10:19;101661.50;;;23.59;54.65
36692;BME280;22678;52.052;4.242;2022-08-21T10:22:07;101663.88;;;23.29;58.78
36692;BME280;22678;52.052;4.242;2022-08-21T10:24:59;101657.03;;;23.40;59.37
36692;BME280;22678;52.052;4.242;2022-08-21T10:30:18;101654.97;;;24.17;58.71
36692;BME280;22678;52.052;4.242;2022-08-21T10:35:45;101658.09;;;24.76;56.87
36692;BME280;22678;52.052;4.242;2022-08-21T10:41:40;101662.56;;;25.25;52.61
36692;BME280;22678;52.052;4.242;2022-08-21T10:44:30;101608.03;;;25.06;50.35
36692;BME280;22678;52.052;4.242;2022-08-21T10:47:01;101666.41;;;25.37;50.43
36692;BME280;22678;52.052;4.242;2022-08-21T10:50:22;101660.63;;;25.27;49.80
36692;BME280;22678;52.052;4.242;2022-08-21T10:55:31;101651.81;;;25.25;49.58
36692;BME280;22678;52.052;4.242;2022-08-21T10:58:02;101665.34;;;25.40;50.04
36692;BME280;22678;52.052;4.242;2022-08-21T11:00:46;101667.69;;;25.46;50.44
36692;BME280;22678;52.052;4.242;2022-08-21T11:03:19;101664.09;;;25.61;49.90
36692;BME280;22678;52.052;4.242;2022-08-21T11:05:54;101668.25;;;25.67;49.09
36692;BME280;22678;52.052;4.242;2022-08-21T11:08:28;101660.94;;;25.69;49.23
36692;BME280;22678;52.052;4.242;2022-08-21T11:11:01;101675.69;;;25.78;48.38
36692;BME280;22678;52.052;4.242;2022-08-21T11:16:05;101664.00;;;25.63;48.58
36692;BME280;22678;52.052;4.242;2022-08-21T11:18:34;101664.22;;;25.44;48.98
36692;BME280;22678;52.052;4.242;2022-08-21T11:21:33;101672.16;;;25.31;49.12
36692;BME280;22678;52.052;4.242;2022-08-21T11:27:02;101676.09;;;25.08;49.17
36692;BME280;22678;52.052;4.242;2022-08-21T11:29:39;101681.66;;;25.05;49.49
36692;BME280;22678;52.052;4.242;2022-08-21T11:35:12;101689.03;;;25.17;49.44
36692;BME280;22678;52.052;4.242;2022-08-21T11:40:24;101689.97;;;25.16;49.56
36692;BME280;22678;52.052;4.242;2022-08-21T11:48:01;101680.44;;;25.58;47.78
36692;BME280;22678;52.052;4.242;2022-08-21T11:50:33;101670.50;;;25.75;48.05
36692;BME280;22678;52.052;4.242;2022-08-21T11:53:31;101671.28;;;26.07;47.46
36692;BME280;22678;52.052;4.242;2022-08-21T11:56:15;101671.81;;;26.28;47.41
36692;BME280;22678;52.052;4.242;2022-08-21T11:58:50;101672.22;;;26.51;46.90
36692;BME280;22678;52.052;4.242;2022-08-21T12:01:19;101685.53;;;26.68;46.33
36692;BME280;22678;52.052;4.242;2022-08-21T12:04:07;101680.72;;;26.73;45.18
36692;BME280;22678;52.052;4.242;2022-08-21T12:06:39;101680.50;;;26.77;45.12
36692;BME280;22678;52.052;4.242;2022-08-21T12:09:51;101693.25;;;26.89;44.67
36692;BME280;22678;52.052;4.242;2022-08-21T12:12:23;101688.78;;;27.02;45.06
36692;BME280;22678;52.052;4.242;2022-08-21T12:14:51;101692.63;;;27.13;45.15
36692;BME280;22678;52.052;4.242;2022-08-21T12:17:36;101690.47;;;27.18;44.54
36692;BME280;22678;52.052;4.242;2022-08-21T12:20:37;101692.78;;;27.24;44.06
36692;BME280;22678;52.052;4.242;2022-08-21T12:23:14;101695.84;;;27.32;44.24
36692;BME280;22678;52.052;4.242;2022-08-21T12:25:58;101699.16;;;27.37;43.87
36692;BME280;22678;52.052;4.242;2022-08-21T12:28:25;101683.50;;;27.28;42.99
36692;BME280;22678;52.052;4.242;2022-08-21T12:30:51;101697.50;;;27.35;42.69
36692;BME280;22678;52.052;4.242;2022-08-21T12:35:46;101697.00;;;27.28;43.19
36692;BME280;22678;52.052;4.242;2022-08-21T12:38:18;101703.66;;;27.37;43.71
36692;BME280;22678;52.052;4.242;2022-08-21T12:41:05;101699.16;;;27.37;43.47
36692;BME280;22678;52.052;4.242;2022-08-21T12:43:43;101704.03;;;27.45;42.78
36692;BME280;22678;52.052;4.242;2022-08-21T12:46:30;101699.28;;;27.49;43.57
36692;BME280;22678;52.052;4.242;2022-08-21T12:49:01;101708.88;;;27.67;42.36
36692;BME280;22678;52.052;4.242;2022-08-21T12:51:36;101696.81;;;27.73;42.79
36692;BME280;22678;52.052;4.242;2022-08-21T12:54:03;101699.19;;;27.77;42.79
36692;BME280;22678;52.052;4.242;2022-08-21T12:56:31;101703.22;;;27.85;43.10
36692;BME280;22678;52.052;4.242;2022-08-21T12:59:05;101701.03;;;27.90;42.69
36692;BME280;22678;52.052;4.242;2022-08-21T13:01:38;101704.66;;;28.03;42.80
36692;BME280;22678;52.052;4.242;2022-08-21T13:04:16;101685.38;;;27.95;42.66
36692;BME280;22678;52.052;4.242;2022-08-21T13:06:45;101696.16;;;28.09;42.22
36692;BME280;22678;52.052;4.242;2022-08-21T13:09:14;101701.25;;;28.14;42.29
36692;BME280;22678;52.052;4.242;2022-08-21T13:11:42;101690.44;;;28.14;42.20
36692;BME280;22678;52.052;4.242;2022-08-21T13:14:25;101708.19;;;28.18;42.49
36692;BME280;22678;52.052;4.242;2022-08-21T13:16:57;101705.13;;;28.10;42.88
36692;BME280;22678;52.052;4.242;2022-08-21T13:19:24;101704.06;;;28.12;42.35
36692;BME280;22678;52.052;4.242;2022-08-21T13:21:51;101700.78;;;28.07;42.19
36692;BME280;22678;52.052;4.242;2022-08-21T13:24:23;101710.88;;;28.18;41.93
36692;BME280;22678;52.052;4.242;2022-08-21T13:26:50;101710.44;;;28.24;41.73
36692;BME280;22678;52.052;4.242;2022-08-21T13:29:18;101695.16;;;28.10;41.33
36692;BME280;22678;52.052;4.242;2022-08-21T13:31:53;101693.00;;;28.03;42.73
36692;BME280;22678;52.052;4.242;2022-08-21T13:34:21;101684.06;;;27.88;43.14
36692;BME280;22678;52.052;4.242;2022-08-21T13:36:51;101689.91;;;27.82;43.81
36692;BME280;22678;52.052;4.242;2022-08-21T13:39:18;101703.41;;;27.82;44.05
36692;BME280;22678;52.052;4.242;2022-08-21T13:41:46;101692.25;;;27.73;44.13
36692;BME280;22678;52.052;4.242;2022-08-21T13:44:42;101707.13;;;27.66;44.53
36692;BME280;22678;52.052;4.242;2022-08-21T13:47:10;101706.81;;;27.58;44.67
36692;BME280;22678;52.052;4.242;2022-08-21T13:49:42;101695.63;;;27.50;44.18
36692;BME280;22678;52.052;4.242;2022-08-21T13:52:44;101711.84;;;27.50;44.74
36692;BME280;22678;52.052;4.242;2022-08-21T13:55:13;101704.03;;;27.45;44.72